sensor_id;sensor_type;location;lat;lon;timestamp;P1;durP1;ratioP1;P2;durP2;ratioP2
32186;SDS011;18686;53.084;8.872;2022-08-03T00:00:32;5.47;;;2.97;;
32186;SDS011;18686;53.084;8.872;2022-08-03T00:03:00;4.93;;;2.80;;
32186;SDS011;18686;53.084;8.872;2022-08-03T00:05:29;2.50;;;2.28;;
32186;SDS011;18686;53.084;8.872;2022-08-03T00:07:58;3.97;;;2.25;;
32186;SDS011;18686;53.084;8.872;2022-08-03T00:10:28;6.30;;;3.03;;
32186;SDS011;18686;53.084;8.872;2022-08-03T00:12:56;5.28;;;3.28;;
32186;SDS011;18686;53.084;8.872;2022-08-03T00:15:25;5.03;;;2.80;;
32186;SDS011;18686;53.084;8.872;2022-08-03T00:17:53;3.65;;;2.70;;
32186;SDS011;18686;53.084;8.872;2022-08-03T00:20:21;5.30;;;2.80;;
32186;SDS011;18686;53.084;8.872;2022-08-03T00:22:49;4.75;;;2.75;;
32186;SDS011;18686;53.084;8.872;2022-08-03T00:25:18;4.72;;;2.40;;
32186;SDS011;18686;53.084;8.872;2022-08-03T00:27:47;4.32;;;2.90;;
32186;SDS011;18686;53.084;8.872;2022-08-03T00:30:16;6.32;;;2.90;;
32186;SDS011;18686;53.084;8.872;2022-08-03T00:32:45;5.18;;;2.63;;
32186;SDS011;18686;53.084;8.872;2022-08-03T00:35:13;4.28;;;2.65;;
32186;SDS011;18686;53.084;8.872;2022-08-03T00:38:02;5.03;;;2.80;;
32186;SDS011;18686;53.084;8.872;2022-08-03T00:40:30;3.28;;;2.78;;
32186;SDS011;18686;53.084;8.872;2022-08-03T00:43:01;4.05;;;3.10;;
32186;SDS011;18686;53.084;8.872;2022-08-03T00:45:31;5.32;;;3.13;;
32186;SDS011;18686;53.084;8.872;2022-08-03T00:48:00;4.38;;;2.80;;
32186;SDS011;18686;53.084;8.872;2022-08-03T00:50:31;5.63;;;3.38;;
32186;SDS011;18686;53.084;8.872;2022-08-03T00:53:03;4.35;;;2.92;;
32186;SDS011;18686;53.084;8.872;2022-08-03T00:55:33;3.95;;;2.90;;
32186;SDS011;18686;53.084;8.872;2022-08-03T00:58:04;2.95;;;2.40;;
32186;SDS011;18686;53.084;8.872;2022-08-03T01:00:33;5.47;;;2.58;;
32186;SDS011;18686;53.084;8.872;2022-08-03T01:03:04;4.43;;;3.20;;
32186;SDS011;18686;53.084;8.872;2022-08-03T01:05:34;5.55;;;3.35;;
32186;SDS011;18686;53.084;8.872;2022-08-03T01:08:11;3.72;;;2.67;;
32186;SDS011;18686;53.084;8.872;2022-08-03T01:10:48;2.88;;;2.58;;
32186;SDS011;18686;53.084;8.872;2022-08-03T01:13:24;4.53;;;2.65;;
32186;SDS011;18686;53.084;8.872;2022-08-03T01:16:17;3.13;;;2.63;;
32186;SDS011;18686;53.084;8.872;2022-08-03T01:19:05;3.03;;;2.63;;
32186;SDS011;18686;53.084;8.872;2022-08-03T01:21:44;4.45;;;2.65;;
32186;SDS011;18686;53.084;8.872;2022-08-03T01:24:21;5.07;;;3.88;;
32186;SDS011;18686;53.084;8.872;2022-08-03T01:27:06;4.70;;;3.60;;
32186;SDS011;18686;53.084;8.872;2022-08-03T01:29:56;3.28;;;2.85;;
32186;SDS011;18686;53.084;8.872;2022-08-03T01:32:31;7.32;;;3.25;;
32186;SDS011;18686;53.084;8.872;2022-08-03T01:35:25;4.85;;;3.65;;
32186;SDS011;18686;53.084;8.872;2022-08-03T01:37:56;3.70;;;3.38;;
32186;SDS011;18686;53.084;8.872;2022-08-03T01:40:27;4.07;;;3.60;;
32186;SDS011;18686;53.084;8.872;2022-08-03T01:42:58;4.03;;;3.03;;
32186;SDS011;18686;53.084;8.872;2022-08-03T01:45:29;6.35;;;3.58;;
32186;SDS011;18686;53.084;8.872;2022-08-03T01:47:59;4.13;;;3.38;;
32186;SDS011;18686;53.084;8.872;2022-08-03T01:50:29;4.72;;;3.70;;
32186;SDS011;18686;53.084;8.872;2022-08-03T01:52:59;7.65;;;3.92;;
32186;SDS011;18686;53.084;8.872;2022-08-03T01:55:28;6.30;;;3.95;;
32186;SDS011;18686;53.084;8.872;2022-08-03T01:58:00;4.35;;;3.58;;
32186;SDS011;18686;53.084;8.872;2022-08-03T02:00:33;5.75;;;4.05;;
32186;SDS011;18686;53.084;8.872;2022-08-03T02:03:03;4.88;;;3.92;;
32186;SDS011;18686;53.084;8.872;2022-08-03T02:05:33;4.15;;;3.50;;
32186;SDS011;18686;53.084;8.872;2022-08-03T02:08:02;4.07;;;3.67;;
32186;SDS011;18686;53.084;8.872;2022-08-03T02:10:33;4.45;;;3.30;;
32186;SDS011;18686;53.084;8.872;2022-08-03T02:13:03;3.35;;;3.13;;
32186;SDS011;18686;53.084;8.872;2022-08-03T02:15:34;4.75;;;3.22;;
32186;SDS011;18686;53.084;8.872;2022-08-03T02:18:04;6.70;;;2.85;;
32186;SDS011;18686;53.084;8.872;2022-08-03T02:20:35;8.80;;;4.13;;
32186;SDS011;18686;53.084;8.872;2022-08-03T02:23:04;5.38;;;3.47;;
32186;SDS011;18686;53.084;8.872;2022-08-03T02:25:34;3.83;;;3.42;;
32186;SDS011;18686;53.084;8.872;2022-08-03T02:28:10;3.90;;;3.50;;
32186;SDS011;18686;53.084;8.872;2022-08-03T02:30:44;3.78;;;3.47;;
32186;SDS011;18686;53.084;8.872;2022-08-03T02:33:20;4.05;;;3.55;;
32186;SDS011;18686;53.084;8.872;2022-08-03T02:35:53;4.43;;;4.03;;
32186;SDS011;18686;53.084;8.872;2022-08-03T02:38:25;6.00;;;4.60;;
32186;SDS011;18686;53.084;8.872;2022-08-03T02:40:55;7.72;;;5.03;;
32186;SDS011;18686;53.084;8.872;2022-08-03T02:43:24;4.68;;;4.22;;
32186;SDS011;18686;53.084;8.872;2022-08-03T02:46:18;6.10;;;4.68;;
32186;SDS011;18686;53.084;8.872;2022-08-03T02:48:49;5.43;;;4.50;;
32186;SDS011;18686;53.084;8.872;2022-08-03T02:51:20;6.88;;;4.43;;
32186;SDS011;18686;53.084;8.872;2022-08-03T02:53:50;5.13;;;4.50;;
32186;SDS011;18686;53.084;8.872;2022-08-03T02:56:20;7.32;;;4.70;;
32186;SDS011;18686;53.084;8.872;2022-08-03T02:58:50;5.53;;;4.15;;
32186;SDS011;18686;53.084;8.872;2022-08-03T03:01:21;7.03;;;4.70;;
32186;SDS011;18686;53.084;8.872;2022-08-03T03:03:52;5.05;;;4.15;;
32186;SDS011;18686;53.084;8.872;2022-08-03T03:06:21;3.95;;;3.25;;
32186;SDS011;18686;53.084;8.872;2022-08-03T03:08:55;6.70;;;5.05;;
32186;SDS011;18686;53.084;8.872;2022-08-03T03:11:25;8.18;;;4.88;;
32186;SDS011;18686;53.084;8.872;2022-08-03T03:13:54;7.30;;;4.80;;
32186;SDS011;18686;53.084;8.872;2022-08-03T03:16:25;4.60;;;4.13;;
32186;SDS011;18686;53.084;8.872;2022-08-03T03:18:55;5.50;;;5.00;;
32186;SDS011;18686;53.084;8.872;2022-08-03T03:21:24;8.70;;;4.68;;
32186;SDS011;18686;53.084;8.872;2022-08-03T03:23:54;4.88;;;4.38;;
32186;SDS011;18686;53.084;8.872;2022-08-03T03:26:22;9.32;;;4.78;;
32186;SDS011;18686;53.084;8.872;2022-08-03T03:28:51;6.82;;;5.28;;
32186;SDS011;18686;53.084;8.872;2022-08-03T03:31:19;4.57;;;3.80;;
32186;SDS011;18686;53.084;8.872;2022-08-03T03:33:49;6.93;;;3.80;;
32186;SDS011;18686;53.084;8.872;2022-08-03T03:36:18;5.75;;;4.50;;
32186;SDS011;18686;53.084;8.872;2022-08-03T03:38:46;5.90;;;4.82;;
32186;SDS011;18686;53.084;8.872;2022-08-03T03:41:14;4.68;;;4.28;;
32186;SDS011;18686;53.084;8.872;2022-08-03T03:43:42;6.38;;;4.55;;
32186;SDS011;18686;53.084;8.872;2022-08-03T03:46:14;5.40;;;4.47;;
32186;SDS011;18686;53.084;8.872;2022-08-03T03:48:43;5.65;;;4.57;;
32186;SDS011;18686;53.084;8.872;2022-08-03T03:51:13;5.28;;;4.80;;
32186;SDS011;18686;53.084;8.872;2022-08-03T03:53:52;8.32;;;5.35;;
32186;SDS011;18686;53.084;8.872;2022-08-03T03:56:21;9.48;;;5.68;;
32186;SDS011;18686;53.084;8.872;2022-08-03T03:58:50;7.32;;;5.32;;
32186;SDS011;18686;53.084;8.872;2022-08-03T04:01:19;7.28;;;4.68;;
32186;SDS011;18686;53.084;8.872;2022-08-03T04:03:47;5.88;;;5.28;;
32186;SDS011;18686;53.084;8.872;2022-08-03T04:06:17;7.70;;;5.43;;
32186;SDS011;18686;53.084;8.872;2022-08-03T04:09:03;6.80;;;5.10;;
32186;SDS011;18686;53.084;8.872;2022-08-03T04:11:51;12.50;;;5.63;;
32186;SDS011;18686;53.084;8.872;2022-08-03T04:14:21;10.48;;;6.05;;
32186;SDS011;18686;53.084;8.872;2022-08-03T04:16:54;6.95;;;5.22;;
32186;SDS011;18686;53.084;8.872;2022-08-03T04:19:25;10.68;;;6.05;;
32186;SDS011;18686;53.084;8.872;2022-08-03T04:22:00;5.93;;;5.32;;
32186;SDS011;18686;53.084;8.872;2022-08-03T04:24:32;12.77;;;5.97;;
32186;SDS011;18686;53.084;8.872;2022-08-03T04:27:05;9.77;;;6.22;;
32186;SDS011;18686;53.084;8.872;2022-08-03T04:29:36;9.75;;;5.50;;
32186;SDS011;18686;53.084;8.872;2022-08-03T04:32:14;9.40;;;6.10;;
32186;SDS011;18686;53.084;8.872;2022-08-03T04:34:43;7.80;;;5.53;;
32186;SDS011;18686;53.084;8.872;2022-08-03T04:37:16;6.95;;;5.22;;
32186;SDS011;18686;53.084;8.872;2022-08-03T04:39:50;6.03;;;5.43;;
32186;SDS011;18686;53.084;8.872;2022-08-03T04:42:23;7.50;;;5.70;;
32186;SDS011;18686;53.084;8.872;2022-08-03T04:44:52;7.85;;;5.22;;
32186;SDS011;18686;53.084;8.872;2022-08-03T04:47:27;5.90;;;5.30;;
32186;SDS011;18686;53.084;8.872;2022-08-03T04:49:57;6.82;;;5.22;;
32186;SDS011;18686;53.084;8.872;2022-08-03T04:52:28;6.47;;;5.43;;
32186;SDS011;18686;53.084;8.872;2022-08-03T04:54:57;6.35;;;5.72;;
32186;SDS011;18686;53.084;8.872;2022-08-03T04:57:25;6.53;;;5.82;;
32186;SDS011;18686;53.084;8.872;2022-08-03T04:59:54;6.05;;;5.30;;
32186;SDS011;18686;53.084;8.872;2022-08-03T05:02:28;7.75;;;5.18;;
32186;SDS011;18686;53.084;8.872;2022-08-03T05:04:57;6.03;;;5.43;;
32186;SDS011;18686;53.084;8.872;2022-08-03T05:07:26;6.45;;;4.85;;
32186;SDS011;18686;53.084;8.872;2022-08-03T05:10:02;7.13;;;5.72;;
32186;SDS011;18686;53.084;8.872;2022-08-03T05:12:41;8.02;;;5.50;;
32186;SDS011;18686;53.084;8.872;2022-08-03T05:15:11;12.50;;;5.90;;
32186;SDS011;18686;53.084;8.872;2022-08-03T05:17:39;6.72;;;5.38;;
32186;SDS011;18686;53.084;8.872;2022-08-03T05:20:08;6.50;;;5.57;;
32186;SDS011;18686;53.084;8.872;2022-08-03T05:22:37;12.57;;;5.57;;
32186;SDS011;18686;53.084;8.872;2022-08-03T05:25:07;11.27;;;5.60;;
32186;SDS011;18686;53.084;8.872;2022-08-03T05:27:46;6.40;;;4.80;;
32186;SDS011;18686;53.084;8.872;2022-08-03T05:30:15;7.88;;;5.03;;
32186;SDS011;18686;53.084;8.872;2022-08-03T05:32:59;7.53;;;5.07;;
32186;SDS011;18686;53.084;8.872;2022-08-03T05:35:27;7.70;;;4.55;;
32186;SDS011;18686;53.084;8.872;2022-08-03T05:38:16;5.60;;;4.68;;
32186;SDS011;18686;53.084;8.872;2022-08-03T05:40:56;5.28;;;4.07;;
32186;SDS011;18686;53.084;8.872;2022-08-03T05:43:44;4.97;;;4.10;;
32186;SDS011;18686;53.084;8.872;2022-08-03T05:46:13;6.05;;;3.92;;
32186;SDS011;18686;53.084;8.872;2022-08-03T05:48:41;4.72;;;3.58;;
32186;SDS011;18686;53.084;8.872;2022-08-03T05:51:10;6.10;;;4.22;;
32186;SDS011;18686;53.084;8.872;2022-08-03T05:53:38;6.03;;;3.70;;
32186;SDS011;18686;53.084;8.872;2022-08-03T05:56:08;8.23;;;4.60;;
32186;SDS011;18686;53.084;8.872;2022-08-03T05:58:41;7.53;;;4.15;;
32186;SDS011;18686;53.084;8.872;2022-08-03T06:01:09;5.80;;;3.78;;
32186;SDS011;18686;53.084;8.872;2022-08-03T06:03:38;4.95;;;3.88;;
32186;SDS011;18686;53.084;8.872;2022-08-03T06:06:06;4.22;;;3.08;;
32186;SDS011;18686;53.084;8.872;2022-08-03T06:08:35;5.60;;;4.18;;
32186;SDS011;18686;53.084;8.872;2022-08-03T06:11:03;4.43;;;3.05;;
32186;SDS011;18686;53.084;8.872;2022-08-03T06:13:33;6.30;;;3.28;;
32186;SDS011;18686;53.084;8.872;2022-08-03T06:16:01;3.38;;;3.05;;
32186;SDS011;18686;53.084;8.872;2022-08-03T06:18:30;7.00;;;4.00;;
32186;SDS011;18686;53.084;8.872;2022-08-03T06:20:58;7.72;;;3.47;;
32186;SDS011;18686;53.084;8.872;2022-08-03T06:23:41;4.28;;;3.22;;
32186;SDS011;18686;53.084;8.872;2022-08-03T06:26:20;3.95;;;2.88;;
32186;SDS011;18686;53.084;8.872;2022-08-03T06:28:54;4.65;;;3.20;;
32186;SDS011;18686;53.084;8.872;2022-08-03T06:31:23;8.10;;;3.25;;
32186;SDS011;18686;53.084;8.872;2022-08-03T06:34:00;7.78;;;3.50;;
32186;SDS011;18686;53.084;8.872;2022-08-03T06:36:49;10.10;;;3.65;;
32186;SDS011;18686;53.084;8.872;2022-08-03T06:39:18;5.30;;;2.90;;
32186;SDS011;18686;53.084;8.872;2022-08-03T06:41:49;5.32;;;2.50;;
32186;SDS011;18686;53.084;8.872;2022-08-03T06:44:20;2.22;;;2.00;;
32186;SDS011;18686;53.084;8.872;2022-08-03T06:46:48;2.83;;;2.30;;
32186;SDS011;18686;53.084;8.872;2022-08-03T06:49:17;4.25;;;2.38;;
32186;SDS011;18686;53.084;8.872;2022-08-03T06:51:45;5.03;;;2.33;;
32186;SDS011;18686;53.084;8.872;2022-08-03T06:54:32;4.10;;;2.38;;
32186;SDS011;18686;53.084;8.872;2022-08-03T06:57:03;3.25;;;2.40;;
32186;SDS011;18686;53.084;8.872;2022-08-03T06:59:34;3.65;;;1.90;;
32186;SDS011;18686;53.084;8.872;2022-08-03T07:02:23;5.80;;;2.00;;
32186;SDS011;18686;53.084;8.872;2022-08-03T07:04:54;3.75;;;2.15;;
32186;SDS011;18686;53.084;8.872;2022-08-03T07:07:22;5.80;;;1.85;;
32186;SDS011;18686;53.084;8.872;2022-08-03T07:09:50;3.72;;;1.70;;
32186;SDS011;18686;53.084;8.872;2022-08-03T07:12:24;6.75;;;1.70;;
32186;SDS011;18686;53.084;8.872;2022-08-03T07:14:54;5.35;;;1.60;;
32186;SDS011;18686;53.084;8.872;2022-08-03T07:17:28;8.90;;;1.58;;
32186;SDS011;18686;53.084;8.872;2022-08-03T07:19:59;4.75;;;1.55;;
32186;SDS011;18686;53.084;8.872;2022-08-03T07:22:28;4.47;;;1.70;;
32186;SDS011;18686;53.084;8.872;2022-08-03T07:24:56;5.20;;;1.55;;
32186;SDS011;18686;53.084;8.872;2022-08-03T07:27:25;3.70;;;1.45;;
32186;SDS011;18686;53.084;8.872;2022-08-03T07:29:56;5.10;;;1.40;;
32186;SDS011;18686;53.084;8.872;2022-08-03T07:32:25;5.60;;;1.30;;
32186;SDS011;18686;53.084;8.872;2022-08-03T07:34:56;6.55;;;1.70;;
32186;SDS011;18686;53.084;8.872;2022-08-03T07:37:27;4.43;;;1.80;;
32186;SDS011;18686;53.084;8.872;2022-08-03T07:39:56;7.35;;;1.75;;
32186;SDS011;18686;53.084;8.872;2022-08-03T07:42:24;5.78;;;1.60;;
32186;SDS011;18686;53.084;8.872;2022-08-03T07:44:53;7.20;;;1.75;;
32186;SDS011;18686;53.084;8.872;2022-08-03T07:47:23;4.55;;;1.15;;
32186;SDS011;18686;53.084;8.872;2022-08-03T07:50:01;4.28;;;1.45;;
32186;SDS011;18686;53.084;8.872;2022-08-03T07:52:30;5.28;;;1.70;;
32186;SDS011;18686;53.084;8.872;2022-08-03T07:55:19;4.88;;;1.67;;
32186;SDS011;18686;53.084;8.872;2022-08-03T07:57:58;6.43;;;1.70;;
32186;SDS011;18686;53.084;8.872;2022-08-03T08:00:27;4.97;;;1.40;;
32186;SDS011;18686;53.084;8.872;2022-08-03T08:02:56;6.85;;;1.42;;
32186;SDS011;18686;53.084;8.872;2022-08-03T08:05:24;5.82;;;1.20;;
32186;SDS011;18686;53.084;8.872;2022-08-03T08:07:53;4.03;;;1.58;;
32186;SDS011;18686;53.084;8.872;2022-08-03T08:10:22;5.15;;;1.67;;
32186;SDS011;18686;53.084;8.872;2022-08-03T08:12:50;7.68;;;1.85;;
32186;SDS011;18686;53.084;8.872;2022-08-03T08:15:18;6.40;;;1.50;;
32186;SDS011;18686;53.084;8.872;2022-08-03T08:17:46;4.10;;;1.77;;
32186;SDS011;18686;53.084;8.872;2022-08-03T08:20:19;2.85;;;1.50;;
32186;SDS011;18686;53.084;8.872;2022-08-03T08:22:54;4.22;;;1.58;;
32186;SDS011;18686;53.084;8.872;2022-08-03T08:25:23;8.15;;;1.55;;
32186;SDS011;18686;53.084;8.872;2022-08-03T08:27:52;3.72;;;1.27;;
32186;SDS011;18686;53.084;8.872;2022-08-03T08:30:40;4.30;;;1.20;;
32186;SDS011;18686;53.084;8.872;2022-08-03T08:33:09;5.63;;;1.25;;
32186;SDS011;18686;53.084;8.872;2022-08-03T08:35:51;3.08;;;1.05;;
32186;SDS011;18686;53.084;8.872;2022-08-03T08:38:19;3.13;;;1.02;;
32186;SDS011;18686;53.084;8.872;2022-08-03T08:40:48;3.88;;;1.20;;
32186;SDS011;18686;53.084;8.872;2022-08-03T08:43:16;5.32;;;1.63;;
32186;SDS011;18686;53.084;8.872;2022-08-03T08:45:44;6.18;;;1.40;;
32186;SDS011;18686;53.084;8.872;2022-08-03T08:48:16;6.70;;;1.42;;
32186;SDS011;18686;53.084;8.872;2022-08-03T08:50:46;2.88;;;1.20;;
32186;SDS011;18686;53.084;8.872;2022-08-03T08:53:20;3.63;;;1.30;;
32186;SDS011;18686;53.084;8.872;2022-08-03T08:55:53;4.72;;;1.38;;
32186;SDS011;18686;53.084;8.872;2022-08-03T08:58:27;4.57;;;1.40;;
32186;SDS011;18686;53.084;8.872;2022-08-03T09:00:56;2.88;;;1.10;;
32186;SDS011;18686;53.084;8.872;2022-08-03T09:03:25;3.97;;;1.10;;
32186;SDS011;18686;53.084;8.872;2022-08-03T09:05:57;4.85;;;1.30;;
32186;SDS011;18686;53.084;8.872;2022-08-03T09:08:28;4.47;;;1.30;;
32186;SDS011;18686;53.084;8.872;2022-08-03T09:10:57;5.35;;;1.33;;
32186;SDS011;18686;53.084;8.872;2022-08-03T09:13:26;3.45;;;1.10;;
32186;SDS011;18686;53.084;8.872;2022-08-03T09:16:07;6.53;;;1.10;;
32186;SDS011;18686;53.084;8.872;2022-08-03T09:18:41;4.53;;;1.60;;
32186;SDS011;18686;53.084;8.872;2022-08-03T09:21:17;4.72;;;1.33;;
32186;SDS011;18686;53.084;8.872;2022-08-03T09:24:03;7.38;;;1.40;;
32186;SDS011;18686;53.084;8.872;2022-08-03T09:26:48;4.57;;;1.48;;
32186;SDS011;18686;53.084;8.872;2022-08-03T09:29:19;3.20;;;1.02;;
32186;SDS011;18686;53.084;8.872;2022-08-03T09:31:49;3.38;;;1.17;;
32186;SDS011;18686;53.084;8.872;2022-08-03T09:34:27;4.75;;;1.30;;
32186;SDS011;18686;53.084;8.872;2022-08-03T09:36:56;4.32;;;1.15;;
32186;SDS011;18686;53.084;8.872;2022-08-03T09:39:26;8.98;;;1.60;;
32186;SDS011;18686;53.084;8.872;2022-08-03T09:42:08;3.53;;;1.58;;
32186;SDS011;18686;53.084;8.872;2022-08-03T09:44:41;4.95;;;1.60;;
32186;SDS011;18686;53.084;8.872;2022-08-03T09:47:11;5.43;;;1.50;;
32186;SDS011;18686;53.084;8.872;2022-08-03T09:49:40;5.18;;;1.60;;
32186;SDS011;18686;53.084;8.872;2022-08-03T09:52:21;7.13;;;1.60;;
32186;SDS011;18686;53.084;8.872;2022-08-03T09:55:16;8.00;;;1.70;;
32186;SDS011;18686;53.084;8.872;2022-08-03T09:58:07;2.73;;;1.27;;
32186;SDS011;18686;53.084;8.872;2022-08-03T10:00:47;4.53;;;1.52;;
32186;SDS011;18686;53.084;8.872;2022-08-03T10:03:20;4.47;;;1.58;;
32186;SDS011;18686;53.084;8.872;2022-08-03T10:05:49;3.15;;;1.42;;
32186;SDS011;18686;53.084;8.872;2022-08-03T10:08:24;5.90;;;1.60;;
32186;SDS011;18686;53.084;8.872;2022-08-03T10:10:54;4.28;;;1.55;;
32186;SDS011;18686;53.084;8.872;2022-08-03T10:13:24;2.20;;;1.17;;
32186;SDS011;18686;53.084;8.872;2022-08-03T10:15:52;7.38;;;2.00;;
32186;SDS011;18686;53.084;8.872;2022-08-03T10:18:40;2.72;;;1.63;;
32186;SDS011;18686;53.084;8.872;2022-08-03T10:21:09;4.03;;;1.98;;
32186;SDS011;18686;53.084;8.872;2022-08-03T10:26:09;2.95;;;2.30;;
32186;SDS011;18686;53.084;8.872;2022-08-03T10:31:14;5.00;;;2.47;;
32186;SDS011;18686;53.084;8.872;2022-08-03T10:33:46;4.38;;;2.38;;
32186;SDS011;18686;53.084;8.872;2022-08-03T10:36:19;5.10;;;2.72;;
32186;SDS011;18686;53.084;8.872;2022-08-03T10:38:51;3.90;;;2.60;;
32186;SDS011;18686;53.084;8.872;2022-08-03T10:41:22;5.05;;;2.63;;
32186;SDS011;18686;53.084;8.872;2022-08-03T10:43:54;5.78;;;2.63;;
32186;SDS011;18686;53.084;8.872;2022-08-03T10:46:25;3.58;;;2.83;;
32186;SDS011;18686;53.084;8.872;2022-08-03T10:48:54;5.30;;;3.33;;
32186;SDS011;18686;53.084;8.872;2022-08-03T10:51:24;9.98;;;3.28;;
32186;SDS011;18686;53.084;8.872;2022-08-03T10:53:57;3.75;;;2.80;;
32186;SDS011;18686;53.084;8.872;2022-08-03T10:56:38;5.32;;;3.30;;
32186;SDS011;18686;53.084;8.872;2022-08-03T11:05:28;7.77;;;3.00;;
32186;SDS011;18686;53.084;8.872;2022-08-03T11:10:47;7.07;;;3.20;;
32186;SDS011;18686;53.084;8.872;2022-08-03T11:13:17;5.32;;;3.63;;
32186;SDS011;18686;53.084;8.872;2022-08-03T11:18:16;5.30;;;3.25;;
32186;SDS011;18686;53.084;8.872;2022-08-03T11:20:45;7.10;;;3.30;;
32186;SDS011;18686;53.084;8.872;2022-08-03T11:23:14;4.93;;;2.97;;
32186;SDS011;18686;53.084;8.872;2022-08-03T11:26:11;7.47;;;3.78;;
32186;SDS011;18686;53.084;8.872;2022-08-03T11:28:42;3.83;;;3.28;;
32186;SDS011;18686;53.084;8.872;2022-08-03T11:34:16;4.22;;;2.97;;
32186;SDS011;18686;53.084;8.872;2022-08-03T11:39:58;5.25;;;3.33;;
32186;SDS011;18686;53.084;8.872;2022-08-03T11:42:37;5.63;;;3.20;;
32186;SDS011;18686;53.084;8.872;2022-08-03T11:45:17;6.45;;;3.13;;
32186;SDS011;18686;53.084;8.872;2022-08-03T11:47:45;4.10;;;3.00;;
32186;SDS011;18686;53.084;8.872;2022-08-03T11:50:17;4.82;;;3.17;;
32186;SDS011;18686;53.084;8.872;2022-08-03T11:52:47;9.48;;;3.50;;
32186;SDS011;18686;53.084;8.872;2022-08-03T11:55:17;4.93;;;2.38;;
32186;SDS011;18686;53.084;8.872;2022-08-03T11:57:47;5.60;;;2.55;;
32186;SDS011;18686;53.084;8.872;2022-08-03T12:00:37;5.03;;;2.47;;
32186;SDS011;18686;53.084;8.872;2022-08-03T12:03:06;7.35;;;2.35;;
32186;SDS011;18686;53.084;8.872;2022-08-03T12:05:38;7.10;;;2.67;;
32186;SDS011;18686;53.084;8.872;2022-08-03T12:08:20;6.43;;;2.38;;
32186;SDS011;18686;53.084;8.872;2022-08-03T12:10:57;7.28;;;2.58;;
32186;SDS011;18686;53.084;8.872;2022-08-03T12:13:35;4.53;;;2.10;;
32186;SDS011;18686;53.084;8.872;2022-08-03T12:16:28;5.40;;;2.30;;
32186;SDS011;18686;53.084;8.872;2022-08-03T12:18:57;8.35;;;2.22;;
32186;SDS011;18686;53.084;8.872;2022-08-03T12:24:21;8.10;;;2.10;;
32186;SDS011;18686;53.084;8.872;2022-08-03T12:27:21;3.75;;;1.80;;
32186;SDS011;18686;53.084;8.872;2022-08-03T12:29:50;4.80;;;1.77;;
32186;SDS011;18686;53.084;8.872;2022-08-03T12:35:21;5.38;;;1.67;;
32186;SDS011;18686;53.084;8.872;2022-08-03T12:37:50;4.28;;;1.80;;
32186;SDS011;18686;53.084;8.872;2022-08-03T12:40:24;5.00;;;1.85;;
32186;SDS011;18686;53.084;8.872;2022-08-03T12:42:53;4.65;;;1.77;;
32186;SDS011;18686;53.084;8.872;2022-08-03T12:45:23;6.95;;;1.83;;
32186;SDS011;18686;53.084;8.872;2022-08-03T12:47:53;6.05;;;1.80;;
32186;SDS011;18686;53.084;8.872;2022-08-03T12:50:23;9.88;;;1.85;;
32186;SDS011;18686;53.084;8.872;2022-08-03T12:52:57;7.88;;;2.05;;
32186;SDS011;18686;53.084;8.872;2022-08-03T12:55:36;4.80;;;2.30;;
32186;SDS011;18686;53.084;8.872;2022-08-03T12:59:31;6.72;;;1.85;;
32186;SDS011;18686;53.084;8.872;2022-08-03T13:02:12;5.70;;;1.50;;
32186;SDS011;18686;53.084;8.872;2022-08-03T13:04:43;4.88;;;1.60;;
32186;SDS011;18686;53.084;8.872;2022-08-03T13:07:13;6.03;;;1.60;;
32186;SDS011;18686;53.084;8.872;2022-08-03T13:23:29;5.80;;;1.85;;
32186;SDS011;18686;53.084;8.872;2022-08-03T13:34:59;7.47;;;1.67;;
32186;SDS011;18686;53.084;8.872;2022-08-03T13:37:28;6.28;;;1.40;;
32186;SDS011;18686;53.084;8.872;2022-08-03T13:39:59;8.05;;;1.60;;
32186;SDS011;18686;53.084;8.872;2022-08-03T13:42:31;4.50;;;1.30;;
32186;SDS011;18686;53.084;8.872;2022-08-03T13:45:00;4.30;;;1.35;;
32186;SDS011;18686;53.084;8.872;2022-08-03T13:47:29;4.05;;;1.60;;
32186;SDS011;18686;53.084;8.872;2022-08-03T13:49:57;6.00;;;1.65;;
32186;SDS011;18686;53.084;8.872;2022-08-03T13:52:31;5.25;;;1.52;;
32186;SDS011;18686;53.084;8.872;2022-08-03T14:01:44;8.38;;;1.73;;
32186;SDS011;18686;53.084;8.872;2022-08-03T14:33:52;11.20;;;2.20;;
32186;SDS011;18686;53.084;8.872;2022-08-03T14:39:38;9.05;;;2.00;;
32186;SDS011;18686;53.084;8.872;2022-08-03T14:42:26;7.20;;;1.88;;
32186;SDS011;18686;53.084;8.872;2022-08-03T14:44:55;8.00;;;2.03;;
32186;SDS011;18686;53.084;8.872;2022-08-03T14:49:58;5.88;;;1.75;;
32186;SDS011;18686;53.084;8.872;2022-08-03T14:52:46;10.35;;;2.20;;
32186;SDS011;18686;53.084;8.872;2022-08-03T14:55:14;6.07;;;2.05;;
32186;SDS011;18686;53.084;8.872;2022-08-03T14:57:42;5.43;;;1.80;;
32186;SDS011;18686;53.084;8.872;2022-08-03T15:00:11;8.82;;;1.77;;
32186;SDS011;18686;53.084;8.872;2022-08-03T15:02:39;7.05;;;2.03;;
32186;SDS011;18686;53.084;8.872;2022-08-03T15:05:09;5.47;;;1.88;;
32186;SDS011;18686;53.084;8.872;2022-08-03T15:07:38;7.32;;;1.70;;
32186;SDS011;18686;53.084;8.872;2022-08-03T15:10:06;8.27;;;1.80;;
32186;SDS011;18686;53.084;8.872;2022-08-03T15:12:35;5.68;;;1.85;;
32186;SDS011;18686;53.084;8.872;2022-08-03T15:15:03;11.13;;;2.30;;
32186;SDS011;18686;53.084;8.872;2022-08-03T15:17:32;5.40;;;1.90;;
32186;SDS011;18686;53.084;8.872;2022-08-03T15:20:00;6.72;;;1.50;;
32186;SDS011;18686;53.084;8.872;2022-08-03T15:22:50;8.40;;;2.40;;
32186;SDS011;18686;53.084;8.872;2022-08-03T15:25:18;13.43;;;2.10;;
32186;SDS011;18686;53.084;8.872;2022-08-03T15:28:06;10.13;;;1.92;;
32186;SDS011;18686;53.084;8.872;2022-08-03T15:30:34;10.02;;;1.98;;
32186;SDS011;18686;53.084;8.872;2022-08-03T15:33:04;11.20;;;2.42;;
32186;SDS011;18686;53.084;8.872;2022-08-03T15:35:32;4.93;;;1.23;;
32186;SDS011;18686;53.084;8.872;2022-08-03T15:38:02;10.15;;;1.98;;
32186;SDS011;18686;53.084;8.872;2022-08-03T15:40:35;11.85;;;2.28;;
32186;SDS011;18686;53.084;8.872;2022-08-03T15:43:03;4.65;;;1.33;;
32186;SDS011;18686;53.084;8.872;2022-08-03T15:45:32;6.50;;;2.00;;
32186;SDS011;18686;53.084;8.872;2022-08-03T15:48:02;5.70;;;1.48;;
32186;SDS011;18686;53.084;8.872;2022-08-03T15:50:31;9.77;;;1.80;;
32186;SDS011;18686;53.084;8.872;2022-08-03T15:52:59;7.15;;;1.75;;
32186;SDS011;18686;53.084;8.872;2022-08-03T15:55:28;7.80;;;2.00;;
32186;SDS011;18686;53.084;8.872;2022-08-03T15:57:57;11.15;;;2.22;;
32186;SDS011;18686;53.084;8.872;2022-08-03T16:00:45;5.78;;;1.90;;
32186;SDS011;18686;53.084;8.872;2022-08-03T16:03:13;6.25;;;1.77;;
32186;SDS011;18686;53.084;8.872;2022-08-03T16:05:42;5.03;;;1.67;;
32186;SDS011;18686;53.084;8.872;2022-08-03T16:08:10;4.25;;;1.52;;
32186;SDS011;18686;53.084;8.872;2022-08-03T16:10:40;6.95;;;1.63;;
32186;SDS011;18686;53.084;8.872;2022-08-03T16:13:09;11.25;;;2.22;;
32186;SDS011;18686;53.084;8.872;2022-08-03T16:15:37;6.22;;;1.50;;
32186;SDS011;18686;53.084;8.872;2022-08-03T16:18:06;6.68;;;1.77;;
32186;SDS011;18686;53.084;8.872;2022-08-03T16:20:34;5.90;;;1.73;;
32186;SDS011;18686;53.084;8.872;2022-08-03T16:23:07;10.27;;;2.22;;
32186;SDS011;18686;53.084;8.872;2022-08-03T16:25:38;12.27;;;1.88;;
32186;SDS011;18686;53.084;8.872;2022-08-03T16:28:07;12.02;;;2.17;;
32186;SDS011;18686;53.084;8.872;2022-08-03T16:33:10;9.48;;;2.30;;
32186;SDS011;18686;53.084;8.872;2022-08-03T16:35:42;7.93;;;1.90;;
32186;SDS011;18686;53.084;8.872;2022-08-03T16:38:11;6.93;;;2.05;;
32186;SDS011;18686;53.084;8.872;2022-08-03T16:40:44;10.10;;;2.13;;
32186;SDS011;18686;53.084;8.872;2022-08-03T16:43:19;6.45;;;2.28;;
32186;SDS011;18686;53.084;8.872;2022-08-03T16:45:48;7.40;;;1.90;;
32186;SDS011;18686;53.084;8.872;2022-08-03T16:48:17;11.25;;;1.80;;
32186;SDS011;18686;53.084;8.872;2022-08-03T16:50:45;7.45;;;2.20;;
32186;SDS011;18686;53.084;8.872;2022-08-03T16:53:14;5.03;;;1.52;;
32186;SDS011;18686;53.084;8.872;2022-08-03T16:55:59;3.78;;;1.42;;